createdAt,value
2022-12-18T00:01:19.393Z,100009.44
2022-12-18T00:03:47.349Z,100011.09
2022-12-18T00:06:15.588Z,100023.03
2022-12-18T00:08:43.456Z,100022.16
2022-12-18T00:11:16.611Z,100031.62
2022-12-18T00:13:44.129Z,100039.25
2022-12-18T00:16:15.785Z,100041.00
2022-12-18T00:18:43.243Z,100047.03
2022-12-18T00:21:12.232Z,100043.56
2022-12-18T00:23:40.896Z,100049.63
2022-12-18T00:26:11.785Z,100067.53
2022-12-18T00:28:42.196Z,100062.44
2022-12-18T00:31:11.510Z,100069.25
2022-12-18T00:33:39.326Z,100078.69
2022-12-18T00:36:15.229Z,100082.97
2022-12-18T00:38:42.636Z,100079.59
2022-12-18T00:41:11.335Z,100079.62
2022-12-18T00:43:40.022Z,100082.22
2022-12-18T00:46:07.489Z,100076.22
2022-12-18T00:48:35.261Z,100083.06
2022-12-18T00:51:02.330Z,100080.50
2022-12-18T00:53:29.498Z,100085.63
2022-12-18T00:55:56.927Z,100095.03
2022-12-18T00:58:24.026Z,100101.91
2022-12-18T01:00:51.161Z,100099.28
2022-12-18T01:03:18.640Z,100095.81
2022-12-18T01:05:45.778Z,100094.97
2022-12-18T01:08:12.917Z,100098.34
2022-12-18T01:10:42.922Z,100102.59
2022-12-18T01:13:09.995Z,100099.19
2022-12-18T01:15:37.199Z,100104.31
2022-12-18T01:18:05.754Z,100112.88
2022-12-18T01:20:33.427Z,100103.44
2022-12-18T01:23:00.529Z,100104.31
2022-12-18T01:25:27.866Z,100109.41
2022-12-18T01:27:54.914Z,100114.50
2022-12-18T01:30:21.976Z,100117.91
2022-12-18T01:32:49.363Z,100111.03
2022-12-18T01:35:17.703Z,100125.47
2022-12-18T01:37:44.794Z,100127.25
2022-12-18T01:40:12.288Z,100128.16
2022-12-18T01:42:39.916Z,100138.28
2022-12-18T01:45:12.976Z,100130.66
2022-12-18T01:47:51.003Z,100140.81
2022-12-18T01:50:22.817Z,100145.97
2022-12-18T01:52:54.146Z,100140.91
2022-12-18T01:55:25.090Z,100152.87
2022-12-18T01:57:55.345Z,100156.22
2022-12-18T02:00:24.008Z,100141.75
2022-12-18T02:02:52.298Z,100147.69
2022-12-18T02:05:27.067Z,100150.28
2022-12-18T02:08:23.408Z,100158.00
2022-12-18T02:11:20.657Z,100149.44
2022-12-18T02:14:12.812Z,100155.47
2022-12-18T02:17:02.820Z,100158.03
2022-12-18T02:19:52.297Z,100160.62
2022-12-18T02:22:45.572Z,100154.66
2022-12-18T02:25:31.017Z,100163.19
2022-12-18T02:28:00.931Z,100171.72
2022-12-18T02:30:32.507Z,100178.59
2022-12-18T02:33:02.263Z,100178.59
2022-12-18T02:35:31.445Z,100173.50
2022-12-18T02:37:59.261Z,100177.75
2022-12-18T02:40:28.936Z,100176.91
2022-12-18T02:42:56.344Z,100182.00
2022-12-18T02:45:24.347Z,100187.16
2022-12-18T02:47:52.739Z,100188.88
2022-12-18T02:50:23.911Z,100190.56
2022-12-18T02:53:05.375Z,100192.31
2022-12-18T02:55:41.665Z,100189.72
2022-12-18T02:58:29.953Z,100190.56
2022-12-18T03:01:29.632Z,100198.28
2022-12-18T03:04:02.476Z,100200.81
2022-12-18T03:06:33.573Z,100206.78
2022-12-18T03:09:03.898Z,100207.66
2022-12-18T03:11:52.640Z,100209.31
2022-12-18T03:14:21.759Z,100208.47
2022-12-18T03:16:52.833Z,100214.44
2022-12-18T03:19:23.854Z,100215.31
2022-12-18T03:21:55.518Z,100214.44
2022-12-18T03:24:24.956Z,100221.28
2022-12-18T03:26:55.940Z,100219.53
2022-12-18T03:29:30.052Z,100220.44
2022-12-18T03:32:04.397Z,100227.25
2022-12-18T03:34:35.045Z,100228.16
2022-12-18T03:37:04.367Z,100232.38
2022-12-18T03:39:32.803Z,100245.19
2022-12-18T03:42:15.775Z,100246.91
2022-12-18T03:45:16.829Z,100255.44
2022-12-18T03:48:01.900Z,100255.41
2022-12-18T03:50:49.092Z,100264.84
2022-12-18T03:53:46.107Z,100263.09
2022-12-18T03:56:15.000Z,100261.41
2022-12-18T03:58:43.301Z,100260.59
2022-12-18T04:01:13.559Z,100260.56
2022-12-18T04:03:42.632Z,100258.88
2022-12-18T04:06:11.071Z,100267.37
2022-12-18T04:08:39.621Z,100266.53
2022-12-18T04:11:07.326Z,100268.22
2022-12-18T04:13:37.376Z,100275.94
2022-12-18T04:16:06.340Z,100267.41
2022-12-18T04:18:33.871Z,100267.41
2022-12-18T04:21:01.185Z,100273.41
2022-12-18T04:23:29.395Z,100277.66
2022-12-18T04:25:57.415Z,100276.78
2022-12-18T04:28:27.227Z,100276.78
2022-12-18T04:30:54.390Z,100281.03
2022-12-18T04:33:22.706Z,100277.66
2022-12-18T04:35:50.028Z,100292.16
2022-12-18T04:38:18.048Z,100279.38
2022-12-18T04:40:46.597Z,100284.50
2022-12-18T04:43:14.944Z,100287.03
2022-12-18T04:45:42.121Z,100291.31
2022-12-18T04:48:09.526Z,100303.25
2022-12-18T04:50:37.435Z,100303.25
2022-12-18T04:53:04.560Z,100311.75
2022-12-18T04:55:31.936Z,100311.78
2022-12-18T04:57:58.993Z,100312.63
2022-12-18T05:00:27.311Z,100314.31
2022-12-18T05:02:55.227Z,100322.88
2022-12-18T05:05:22.388Z,100334.78
2022-12-18T05:07:49.444Z,100336.50
2022-12-18T05:10:16.782Z,100334.78
2022-12-18T05:13:02.154Z,100331.41
2022-12-18T05:15:30.818Z,100333.09
2022-12-18T05:17:58.957Z,100335.63
2022-12-18T05:20:26.874Z,100330.53
2022-12-18T05:22:55.504Z,100333.97
2022-12-18T05:25:23.405Z,100339.09
2022-12-18T05:27:50.455Z,100339.13
2022-12-18T05:30:18.036Z,100339.97
2022-12-18T05:32:45.117Z,100347.62
2022-12-18T05:35:12.385Z,100346.75
2022-12-18T05:37:43.169Z,100341.66
2022-12-18T05:40:11.339Z,100349.31
2022-12-18T05:42:38.470Z,100356.16
2022-12-18T05:45:06.790Z,100351.88
2022-12-18T05:47:33.813Z,100360.41
2022-12-18T05:50:00.886Z,100363.81
2022-12-18T05:52:28.181Z,100368.94
2022-12-18T05:54:55.277Z,100366.37
2022-12-18T05:57:22.349Z,100368.94
2022-12-18T05:59:49.708Z,100369.78
2022-12-18T06:02:16.913Z,100374.88
2022-12-18T06:04:44.318Z,100374.06
2022-12-18T06:07:11.368Z,100380.88
2022-12-18T06:09:38.505Z,100379.16
2022-12-18T06:12:06.328Z,100376.59
2022-12-18T06:14:33.409Z,100380.88
2022-12-18T06:17:00.437Z,100389.37
2022-12-18T06:19:27.733Z,100393.66
2022-12-18T06:21:54.748Z,100400.44
2022-12-18T06:24:21.798Z,100387.66
2022-12-18T06:26:49.082Z,100391.94
2022-12-18T06:29:16.077Z,100396.19
2022-12-18T06:31:43.114Z,100403.84
2022-12-18T06:34:10.454Z,100404.72
2022-12-18T06:36:37.452Z,100403.84
2022-12-18T06:39:04.980Z,100412.38
2022-12-18T06:41:32.290Z,100420.88
2022-12-18T06:44:00.063Z,100426.84
2022-12-18T06:46:27.783Z,100427.72
2022-12-18T06:48:55.033Z,100433.66
2022-12-18T06:51:23.601Z,100420.06
2022-12-18T06:53:50.778Z,100426.84
2022-12-18T06:56:18.274Z,100426.00
2022-12-18T06:58:45.345Z,100434.56
2022-12-18T07:01:13.313Z,100438.78
2022-12-18T07:03:42.164Z,100447.34
2022-12-18T07:06:27.447Z,100448.19
2022-12-18T07:08:55.264Z,100447.34
2022-12-18T07:11:22.814Z,100455.84
2022-12-18T07:13:49.889Z,100451.59
2022-12-18T07:16:25.197Z,100464.37
2022-12-18T07:18:53.267Z,100475.44
2022-12-18T07:21:20.724Z,100477.16
2022-12-18T07:23:49.198Z,100480.56
2022-12-18T07:26:18.643Z,100481.41
2022-12-18T07:28:46.089Z,100482.25
2022-12-18T07:31:15.747Z,100494.19
2022-12-18T07:33:43.331Z,100499.28
2022-12-18T07:36:11.289Z,100501.84
2022-12-18T07:38:38.653Z,100507.81
2022-12-18T07:41:08.216Z,100506.91
2022-12-18T07:43:36.169Z,100504.34
2022-12-18T07:46:03.796Z,100508.59
2022-12-18T07:48:31.516Z,100515.41
2022-12-18T07:51:03.659Z,100521.34
2022-12-18T07:53:31.526Z,100523.84
2022-12-18T07:56:25.969Z,100527.28
2022-12-18T07:58:48.568Z,100535.81
2022-12-18T08:01:16.644Z,100537.44
2022-12-18T08:03:44.581Z,100550.22
2022-12-18T08:06:11.633Z,100549.37
2022-12-18T08:08:38.759Z,100555.31
2022-12-18T08:11:06.119Z,100557.88
2022-12-18T08:13:33.186Z,100558.72
2022-12-18T08:16:02.688Z,100557.84
2022-12-18T08:18:30.561Z,100563.88
2022-12-18T08:21:10.321Z,100563.91
2022-12-18T08:23:42.568Z,100569.03
2022-12-18T08:26:11.298Z,100566.47
2022-12-18T08:28:38.904Z,100574.97
2022-12-18T08:31:06.379Z,100569.81
2022-12-18T08:33:33.907Z,100580.03
2022-12-18T08:36:01.785Z,100571.44
2022-12-18T08:38:29.136Z,100585.16
2022-12-18T08:41:04.001Z,100580.88
2022-12-18T08:43:50.122Z,100587.78
2022-12-18T08:46:17.700Z,100580.06
2022-12-18T08:48:45.159Z,100574.81
2022-12-18T08:51:13.539Z,100580.84
2022-12-18T08:53:41.022Z,100577.34
2022-12-18T08:56:09.034Z,100585.00
2022-12-18T08:58:36.091Z,100582.28
2022-12-18T09:01:08.214Z,100595.94
2022-12-18T09:03:36.051Z,100595.12
2022-12-18T09:06:03.384Z,100601.06
2022-12-18T09:08:30.835Z,100607.81
2022-12-18T09:11:04.074Z,100609.56
2022-12-18T09:13:31.313Z,100608.66
2022-12-18T09:15:58.527Z,100618.91
2022-12-18T09:18:26.125Z,100610.37
2022-12-18T09:20:53.966Z,100607.78
2022-12-18T09:23:21.823Z,100605.12
2022-12-18T09:25:49.644Z,100605.94
2022-12-18T09:28:18.655Z,100605.81
2022-12-18T09:30:50.191Z,100608.28
2022-12-18T09:33:18.523Z,100612.41
2022-12-18T09:35:47.190Z,100605.63
2022-12-18T09:38:17.443Z,100602.16
2022-12-18T09:40:51.194Z,100606.19
2022-12-18T09:43:20.963Z,100617.25
2022-12-18T09:45:59.477Z,100611.13
2022-12-18T09:48:32.337Z,100605.84
2022-12-18T09:51:03.797Z,100605.78
2022-12-18T09:53:34.351Z,100612.63
2022-12-18T09:56:02.885Z,100615.94
2022-12-18T09:58:34.253Z,100606.50
2022-12-18T10:01:01.519Z,100614.25
2022-12-18T10:03:29.023Z,100611.59
2022-12-18T10:06:14.737Z,100619.34
2022-12-18T10:08:49.567Z,100619.31
2022-12-18T10:11:28.691Z,100617.44
2022-12-18T10:14:12.205Z,100614.72
2022-12-18T10:16:48.531Z,100615.38
2022-12-18T10:19:34.515Z,100614.69
2022-12-18T10:22:23.197Z,100606.66
2022-12-18T10:24:52.316Z,100609.19
2022-12-18T10:27:23.602Z,100614.34
2022-12-18T10:29:50.810Z,100602.06
2022-12-18T10:32:24.335Z,100602.09
2022-12-18T10:35:00.047Z,100602.16
2022-12-18T10:37:30.359Z,100607.31
2022-12-18T10:40:10.801Z,100603.75
2022-12-18T10:42:38.495Z,100604.62
2022-12-18T10:45:16.334Z,100611.47
2022-12-18T10:47:49.676Z,100604.56
2022-12-18T10:51:01.290Z,100610.50
2022-12-18T10:53:21.556Z,100607.84
2022-12-18T10:55:49.143Z,100606.00
2022-12-18T10:58:26.751Z,100609.38
2022-12-18T11:01:16.700Z,100604.25
2022-12-18T11:04:02.468Z,100607.63
2022-12-18T11:06:30.460Z,100602.56
2022-12-18T11:09:23.082Z,100593.03
2022-12-18T11:11:54.991Z,100586.91
2022-12-18T11:14:25.173Z,100586.56
2022-12-18T11:19:42.029Z,100588.25
2022-12-18T11:22:28.847Z,100587.25
2022-12-18T11:25:30.216Z,100589.50
2022-12-18T11:27:50.810Z,100588.75
2022-12-18T11:30:21.109Z,100587.06
2022-12-18T11:32:50.215Z,100582.78
2022-12-18T11:35:29.615Z,100586.91
2022-12-18T11:38:27.555Z,100578.22
2022-12-18T11:42:00.466Z,100575.56
2022-12-18T11:44:44.055Z,100579.84
2022-12-18T11:47:37.135Z,100584.81
2022-12-18T11:50:16.166Z,100582.16
2022-12-18T11:52:43.976Z,100578.59
2022-12-18T11:55:26.657Z,100568.97
2022-12-18T11:58:06.002Z,100568.81
2022-12-18T12:00:36.761Z,100566.13
2022-12-18T12:03:16.224Z,100571.91
2022-12-18T12:06:07.275Z,100558.09
2022-12-18T12:08:52.988Z,100559.66
2022-12-18T12:11:52.499Z,100562.31
2022-12-18T12:14:33.671Z,100558.78
2022-12-18T12:17:26.961Z,100564.53
2022-12-18T12:20:23.577Z,100558.34
2022-12-18T12:23:02.061Z,100559.37
2022-12-18T12:25:40.671Z,100560.94
2022-12-18T12:28:39.088Z,100559.22
2022-12-18T12:31:09.003Z,100562.87
2022-12-18T12:33:51.036Z,100569.53
2022-12-18T12:36:27.340Z,100569.37
2022-12-18T12:38:57.358Z,100561.09
2022-12-18T12:41:45.726Z,100561.91
2022-12-18T12:44:19.572Z,100563.72
2022-12-18T12:46:47.807Z,100572.19
2022-12-18T12:49:18.689Z,100576.97
2022-12-18T12:52:14.367Z,100587.28
2022-12-18T12:54:42.174Z,100581.31
2022-12-18T12:57:19.234Z,100588.25
2022-12-18T13:00:03.744Z,100604.81
2022-12-18T13:02:40.187Z,100600.56
2022-12-18T13:05:17.915Z,100597.88
2022-12-18T13:07:51.459Z,100598.84
2022-12-18T13:10:22.231Z,100599.91
2022-12-18T13:12:58.816Z,100604.34
2022-12-18T13:15:40.673Z,100601.84
2022-12-18T13:18:10.439Z,100605.12
2022-12-18T13:20:40.735Z,100612.75
2022-12-18T13:23:20.983Z,100611.13
2022-12-18T13:25:51.221Z,100618.22
2022-12-18T13:28:22.938Z,100612.31
2022-12-18T13:30:55.383Z,100618.34
2022-12-18T13:33:27.933Z,100615.03
2022-12-18T13:36:28.619Z,100614.09
2022-12-18T13:39:17.303Z,100622.88
2022-12-18T13:41:50.467Z,100606.47
2022-12-18T13:44:41.135Z,100615.16
2022-12-18T13:47:33.799Z,100623.72
2022-12-18T13:50:12.880Z,100625.59
2022-12-18T13:52:41.260Z,100629.19
2022-12-18T13:55:17.588Z,100632.66
2022-12-18T13:57:45.221Z,100626.56
2022-12-18T14:00:29.790Z,100627.44
2022-12-18T14:02:58.526Z,100637.00
2022-12-18T14:05:31.047Z,100629.25
2022-12-18T14:08:03.777Z,100637.22
2022-12-18T14:10:47.794Z,100635.59
2022-12-18T14:13:24.747Z,100633.00
2022-12-18T14:15:52.035Z,100633.91
2022-12-18T14:18:25.232Z,100627.19
2022-12-18T14:20:54.596Z,100633.34
2022-12-18T14:23:33.556Z,100637.72
2022-12-18T14:26:05.725Z,100636.13
2022-12-18T14:28:45.007Z,100642.16
2022-12-18T14:31:23.273Z,100638.88
2022-12-18T14:33:51.299Z,100640.63
2022-12-18T14:36:29.691Z,100637.28
2022-12-18T14:38:58.496Z,100647.75
2022-12-18T14:41:26.517Z,100645.28
2022-12-18T14:43:55.130Z,100659.97
2022-12-18T14:46:46.793Z,100662.72
2022-12-18T14:49:34.905Z,100662.78
2022-12-18T14:52:04.818Z,100662.97
2022-12-18T14:54:32.552Z,100671.75
2022-12-18T14:57:07.730Z,100673.66
2022-12-18T14:59:35.030Z,100681.50
2022-12-18T15:02:26.804Z,100680.03
2022-12-18T15:05:22.057Z,100681.00
2022-12-18T15:07:51.893Z,100683.66
2022-12-18T15:10:34.116Z,100686.47
2022-12-18T15:13:01.577Z,100679.72
2022-12-18T15:15:37.991Z,100692.62
2022-12-18T15:18:07.566Z,100690.97
2022-12-18T15:20:52.136Z,100698.75
2022-12-18T15:23:27.700Z,100697.16
2022-12-18T15:26:00.433Z,100705.78
2022-12-18T15:28:39.099Z,100720.38
2022-12-18T15:31:26.376Z,100721.25
2022-12-18T15:33:53.870Z,100716.22
2022-12-18T15:36:26.174Z,100731.66
2022-12-18T15:39:02.903Z,100729.94
2022-12-18T15:41:35.211Z,100731.66
2022-12-18T15:44:04.503Z,100732.56
2022-12-18T15:46:32.114Z,100741.19
2022-12-18T15:49:02.558Z,100743.75
2022-12-18T15:51:41.440Z,100744.63
2022-12-18T15:54:13.962Z,100746.34
2022-12-18T15:56:59.597Z,100740.41
2022-12-18T15:59:27.007Z,100748.94
2022-12-18T16:01:54.370Z,100739.63
2022-12-18T16:04:23.097Z,100743.88
2022-12-18T16:09:40.987Z,100753.28
2022-12-18T16:12:22.144Z,100754.16
2022-12-18T16:14:49.680Z,100755.91
2022-12-18T16:17:16.916Z,100761.03
2022-12-18T16:19:44.288Z,100761.91
2022-12-18T16:22:19.941Z,100769.59
2022-12-18T16:24:46.994Z,100767.88
2022-12-18T16:27:14.352Z,100765.31
2022-12-18T16:29:41.448Z,100768.78
2022-12-18T16:32:14.079Z,100777.31
2022-12-18T16:34:42.951Z,100779.09
2022-12-18T16:37:11.871Z,100776.53
2022-12-18T16:39:40.127Z,100779.09
2022-12-18T16:42:13.653Z,100776.53
2022-12-18T16:44:41.306Z,100782.53
2022-12-18T16:47:09.546Z,100786.81
2022-12-18T16:49:38.585Z,100795.44
2022-12-18T16:52:06.581Z,100795.44
2022-12-18T16:54:35.135Z,100803.13
2022-12-18T16:57:02.733Z,100787.78
2022-12-18T16:59:29.912Z,100792.09
2022-12-18T17:01:57.724Z,100797.22
2022-12-18T17:04:25.104Z,100792.94
2022-12-18T17:06:53.859Z,100784.41
2022-12-18T17:09:31.040Z,100778.41
2022-12-18T17:11:58.167Z,100778.41
2022-12-18T17:14:25.841Z,100781.81
2022-12-18T17:17:20.288Z,100773.28
2022-12-18T17:19:44.408Z,100762.19
2022-12-18T17:22:11.489Z,100768.16
2022-12-18T17:24:38.622Z,100773.28
2022-12-18T17:27:06.029Z,100769.88
2022-12-18T17:29:33.231Z,100775.87
2022-12-18T17:32:00.410Z,100770.75
2022-12-18T17:34:30.132Z,100774.16
2022-12-18T17:36:58.056Z,100778.44
2022-12-18T17:39:25.804Z,100776.72
2022-12-18T17:41:53.083Z,100787.78
2022-12-18T17:44:20.410Z,100797.19
2022-12-18T17:46:47.538Z,100798.03
2022-12-18T17:49:15.008Z,100802.31
2022-12-18T17:51:43.092Z,100806.53
2022-12-18T17:54:11.058Z,100799.72
2022-12-18T17:56:38.818Z,100796.28
2022-12-18T17:59:07.180Z,100786.03
2022-12-18T18:01:38.479Z,100784.34
2022-12-18T18:04:08.501Z,100780.91
2022-12-18T18:06:38.101Z,100784.34
2022-12-18T18:09:12.948Z,100781.72
2022-12-18T18:12:06.691Z,100785.97
2022-12-18T18:14:33.724Z,100796.19
2022-12-18T18:17:04.795Z,100795.34
2022-12-18T18:19:35.751Z,100783.41
2022-12-18T18:22:03.709Z,100785.94
2022-12-18T18:24:31.272Z,100790.22
2022-12-18T18:27:00.020Z,100783.38
2022-12-18T18:29:30.297Z,100789.28
2022-12-18T18:31:57.934Z,100785.91
2022-12-18T18:34:27.921Z,100795.25
2022-12-18T18:36:55.570Z,100809.78
2022-12-18T18:39:25.391Z,100818.28
2022-12-18T18:41:52.814Z,100818.28
2022-12-18T18:44:24.812Z,100827.66
2022-12-18T18:46:57.312Z,100826.81
2022-12-18T18:49:27.459Z,100822.53
2022-12-18T18:51:56.291Z,100823.34
2022-12-18T18:54:25.382Z,100826.78
2022-12-18T18:59:39.856Z,100827.59
2022-12-18T19:02:14.302Z,100816.44
2022-12-18T19:04:46.260Z,100815.59
2022-12-18T19:07:19.752Z,100816.47
2022-12-18T19:09:57.132Z,100820.69
2022-12-18T19:12:45.052Z,100824.97
2022-12-18T19:15:12.055Z,100825.88
2022-12-18T19:17:41.068Z,100831.84
2022-12-18T19:20:10.172Z,100826.72
2022-12-18T19:22:39.472Z,100838.66
2022-12-18T19:25:07.686Z,100836.91
2022-12-18T19:27:38.531Z,100843.72
2022-12-18T19:30:06.102Z,100839.44
2022-12-18T19:32:36.451Z,100836.87
2022-12-18T19:35:04.003Z,100841.13
2022-12-18T19:37:31.205Z,100841.94
2022-12-18T19:39:58.634Z,100845.28
2022-12-18T19:42:34.848Z,100852.09
2022-12-18T19:45:07.204Z,100851.25
2022-12-18T19:47:34.203Z,100855.47
2022-12-18T19:50:01.274Z,100861.47
2022-12-18T19:52:28.621Z,100858.91
2022-12-18T19:54:55.702Z,100861.44
2022-12-18T19:57:22.810Z,100858.81
2022-12-18T19:59:50.142Z,100863.81
2022-12-18T20:02:18.933Z,100864.69
2022-12-18T20:04:46.737Z,100867.25
2022-12-18T20:07:13.804Z,100857.00
2022-12-18T20:09:40.903Z,100862.12
2022-12-18T20:12:08.347Z,100867.34
2022-12-18T20:14:36.647Z,100873.34
2022-12-18T20:17:03.758Z,100870.00
2022-12-18T20:19:32.319Z,100872.59
2022-12-18T20:22:01.162Z,100875.25
2022-12-18T20:24:28.268Z,100882.97
2022-12-18T20:26:56.435Z,100890.63
2022-12-18T20:29:23.438Z,100893.12
2022-12-18T20:31:50.691Z,100899.81
2022-12-18T20:34:18.446Z,100892.94
2022-12-18T20:36:46.394Z,100886.31
2022-12-18T20:39:13.595Z,100898.28
2022-12-18T20:41:41.751Z,100901.81
2022-12-18T20:44:22.878Z,100900.97
2022-12-18T20:46:53.908Z,100889.03
2022-12-18T20:49:21.227Z,100887.31
2022-12-18T20:51:52.906Z,100893.34
2022-12-18T20:54:24.710Z,100902.66
2022-12-18T20:56:52.279Z,100902.63
2022-12-18T20:59:19.778Z,100898.25
2022-12-18T21:01:48.982Z,100897.44
2022-12-18T21:04:18.991Z,100897.47
2022-12-18T21:06:52.997Z,100907.75
2022-12-18T21:09:23.409Z,100908.69
2022-12-18T21:12:29.236Z,100913.84
2022-12-18T21:14:59.725Z,100912.19
2022-12-18T21:17:27.262Z,100907.13
2022-12-18T21:19:55.753Z,100908.81
2022-12-18T21:22:23.155Z,100904.56
2022-12-18T21:24:50.310Z,100906.28
2022-12-18T21:27:18.116Z,100907.16
2022-12-18T21:29:47.047Z,100893.53
2022-12-18T21:32:14.407Z,100892.72
2022-12-18T21:34:47.505Z,100902.16
2022-12-18T21:37:15.831Z,100908.97
2022-12-18T21:39:42.873Z,100908.16
2022-12-18T21:42:30.683Z,100891.13
2022-12-18T21:44:58.006Z,100881.63
2022-12-18T21:47:25.091Z,100880.75
2022-12-18T21:49:52.849Z,100889.34
2022-12-18T21:52:23.878Z,100891.06
2022-12-18T21:55:06.154Z,100885.13
2022-12-18T21:57:36.034Z,100897.13
2022-12-18T22:00:04.216Z,100891.13
2022-12-18T22:02:39.631Z,100896.19
2022-12-18T22:05:07.557Z,100887.66
2022-12-18T22:07:34.780Z,100891.88
2022-12-18T22:10:02.286Z,100886.78
2022-12-18T22:12:44.420Z,100884.19
2022-12-18T22:15:21.143Z,100882.41
2022-12-18T22:17:50.787Z,100888.41
2022-12-18T22:20:19.990Z,100885.00
2022-12-18T22:22:48.469Z,100881.59
2022-12-18T22:25:16.002Z,100881.63
2022-12-18T22:27:43.416Z,100883.28
2022-12-18T22:30:11.379Z,100894.44
2022-12-18T22:32:38.715Z,100891.03
2022-12-18T22:35:10.603Z,100891.03
2022-12-18T22:37:40.273Z,100897.87
2022-12-18T22:40:08.637Z,100910.66
2022-12-18T22:42:35.819Z,100903.81
2022-12-18T22:45:03.312Z,100900.41
2022-12-18T22:47:30.840Z,100903.84
2022-12-18T22:49:58.284Z,100899.59
2022-12-18T22:52:25.899Z,100905.53
2022-12-18T22:54:56.402Z,100898.69
2022-12-18T22:57:23.853Z,100900.41
2022-12-18T22:59:51.811Z,100899.56
2022-12-18T23:02:19.327Z,100897.87
2022-12-18T23:04:47.564Z,100897.84
2022-12-18T23:07:15.699Z,100896.12
2022-12-18T23:09:42.955Z,100907.22
2022-12-18T23:12:15.444Z,100908.06
2022-12-18T23:14:47.196Z,100906.38
2022-12-18T23:17:14.334Z,100903.78
2022-12-18T23:19:47.176Z,100908.06
2022-12-18T23:22:17.068Z,100914.06
2022-12-18T23:24:44.194Z,100910.63
2022-12-18T23:27:11.936Z,100909.78
2022-12-18T23:29:40.540Z,100908.09
2022-12-18T23:32:07.833Z,100901.22
2022-12-18T23:34:34.807Z,100906.34
2022-12-18T23:37:03.642Z,100902.97
2022-12-18T23:39:31.049Z,100900.38
2022-12-18T23:41:58.760Z,100902.06
2022-12-18T23:44:26.296Z,100902.91
2022-12-18T23:46:53.577Z,100896.91
2022-12-18T23:49:20.703Z,100899.47
2022-12-18T23:51:48.084Z,100898.59
2022-12-18T23:54:15.176Z,100896.03
2022-12-18T23:56:42.324Z,100898.59
2022-12-18T23:59:09.848Z,100903.72
